sensor_id;sensor_type;location;lat;lon;timestamp;P1;durP1;ratioP1;P2;durP2;ratioP2
19585;SDS011;9939;49.246;9.106;2022-08-30T00:02:09;5.33;;;1.63;;
19585;SDS011;9939;49.246;9.106;2022-08-30T00:04:36;5.83;;;2.13;;
19585;SDS011;9939;49.246;9.106;2022-08-30T00:07:03;3.67;;;1.80;;
19585;SDS011;9939;49.246;9.106;2022-08-30T00:09:31;5.20;;;1.80;;
19585;SDS011;9939;49.246;9.106;2022-08-30T00:11:58;4.30;;;1.90;;
19585;SDS011;9939;49.246;9.106;2022-08-30T00:14:25;3.87;;;1.53;;
19585;SDS011;9939;49.246;9.106;2022-08-30T00:16:53;3.10;;;1.83;;
19585;SDS011;9939;49.246;9.106;2022-08-30T00:19:20;5.20;;;1.73;;
19585;SDS011;9939;49.246;9.106;2022-08-30T00:21:47;6.23;;;1.80;;
19585;SDS011;9939;49.246;9.106;2022-08-30T00:24:14;9.30;;;3.87;;
19585;SDS011;9939;49.246;9.106;2022-08-30T00:26:41;4.37;;;2.00;;
19585;SDS011;9939;49.246;9.106;2022-08-30T00:29:08;7.77;;;1.90;;
19585;SDS011;9939;49.246;9.106;2022-08-30T00:31:35;4.63;;;1.90;;
19585;SDS011;9939;49.246;9.106;2022-08-30T00:34:02;6.43;;;1.90;;
19585;SDS011;9939;49.246;9.106;2022-08-30T00:36:29;9.90;;;2.43;;
19585;SDS011;9939;49.246;9.106;2022-08-30T00:38:56;3.77;;;1.77;;
19585;SDS011;9939;49.246;9.106;2022-08-30T00:41:23;4.73;;;1.90;;
19585;SDS011;9939;49.246;9.106;2022-08-30T00:43:50;5.57;;;1.90;;
19585;SDS011;9939;49.246;9.106;2022-08-30T00:46:17;3.47;;;1.83;;
19585;SDS011;9939;49.246;9.106;2022-08-30T00:48:45;6.20;;;2.00;;
19585;SDS011;9939;49.246;9.106;2022-08-30T00:51:14;6.37;;;1.87;;
19585;SDS011;9939;49.246;9.106;2022-08-30T00:53:43;5.90;;;1.97;;
19585;SDS011;9939;49.246;9.106;2022-08-30T00:56:14;4.40;;;1.70;;
19585;SDS011;9939;49.246;9.106;2022-08-30T00:58:44;3.83;;;1.63;;
19585;SDS011;9939;49.246;9.106;2022-08-30T01:01:16;4.37;;;2.00;;
19585;SDS011;9939;49.246;9.106;2022-08-30T01:03:45;5.43;;;1.90;;
19585;SDS011;9939;49.246;9.106;2022-08-30T01:06:12;4.27;;;1.63;;
19585;SDS011;9939;49.246;9.106;2022-08-30T01:08:43;5.17;;;2.00;;
19585;SDS011;9939;49.246;9.106;2022-08-30T01:11:11;2.90;;;1.50;;
19585;SDS011;9939;49.246;9.106;2022-08-30T01:13:40;3.70;;;1.77;;
19585;SDS011;9939;49.246;9.106;2022-08-30T01:16:09;4.87;;;2.43;;
19585;SDS011;9939;49.246;9.106;2022-08-30T01:18:36;5.43;;;1.97;;
19585;SDS011;9939;49.246;9.106;2022-08-30T01:23:57;6.37;;;2.27;;
19585;SDS011;9939;49.246;9.106;2022-08-30T01:26:26;4.37;;;1.90;;
19585;SDS011;9939;49.246;9.106;2022-08-30T01:28:57;2.90;;;1.70;;
19585;SDS011;9939;49.246;9.106;2022-08-30T01:31:27;5.40;;;1.80;;
19585;SDS011;9939;49.246;9.106;2022-08-30T01:33:54;3.40;;;1.67;;
19585;SDS011;9939;49.246;9.106;2022-08-30T01:36:22;4.70;;;1.90;;
19585;SDS011;9939;49.246;9.106;2022-08-30T01:38:52;4.07;;;1.80;;
19585;SDS011;9939;49.246;9.106;2022-08-30T01:41:22;5.03;;;1.80;;
19585;SDS011;9939;49.246;9.106;2022-08-30T01:43:54;6.37;;;2.10;;
19585;SDS011;9939;49.246;9.106;2022-08-30T01:46:24;5.53;;;2.03;;
19585;SDS011;9939;49.246;9.106;2022-08-30T01:48:53;4.63;;;2.20;;
19585;SDS011;9939;49.246;9.106;2022-08-30T01:51:22;7.10;;;2.00;;
19585;SDS011;9939;49.246;9.106;2022-08-30T01:53:51;6.47;;;1.83;;
19585;SDS011;9939;49.246;9.106;2022-08-30T01:56:18;6.80;;;2.20;;
19585;SDS011;9939;49.246;9.106;2022-08-30T01:58:46;4.07;;;1.50;;
19585;SDS011;9939;49.246;9.106;2022-08-30T02:01:14;4.53;;;1.90;;
19585;SDS011;9939;49.246;9.106;2022-08-30T02:03:45;6.83;;;1.80;;
19585;SDS011;9939;49.246;9.106;2022-08-30T02:06:15;6.30;;;2.07;;
19585;SDS011;9939;49.246;9.106;2022-08-30T02:08:44;4.43;;;2.37;;
19585;SDS011;9939;49.246;9.106;2022-08-30T02:11:12;6.43;;;2.03;;
19585;SDS011;9939;49.246;9.106;2022-08-30T02:13:41;4.77;;;2.20;;
19585;SDS011;9939;49.246;9.106;2022-08-30T02:16:12;5.00;;;2.00;;
19585;SDS011;9939;49.246;9.106;2022-08-30T02:18:41;7.40;;;2.20;;
19585;SDS011;9939;49.246;9.106;2022-08-30T02:21:09;3.27;;;1.73;;
19585;SDS011;9939;49.246;9.106;2022-08-30T02:23:37;6.27;;;1.90;;
19585;SDS011;9939;49.246;9.106;2022-08-30T02:26:04;8.50;;;2.47;;
19585;SDS011;9939;49.246;9.106;2022-08-30T02:28:32;4.33;;;1.90;;
19585;SDS011;9939;49.246;9.106;2022-08-30T02:30:59;5.27;;;2.17;;
19585;SDS011;9939;49.246;9.106;2022-08-30T02:33:27;6.13;;;1.93;;
19585;SDS011;9939;49.246;9.106;2022-08-30T02:35:54;4.83;;;1.90;;
19585;SDS011;9939;49.246;9.106;2022-08-30T02:38:21;5.23;;;2.17;;
19585;SDS011;9939;49.246;9.106;2022-08-30T02:40:49;7.00;;;1.90;;
19585;SDS011;9939;49.246;9.106;2022-08-30T02:43:17;7.13;;;2.80;;
19585;SDS011;9939;49.246;9.106;2022-08-30T02:45:45;5.03;;;2.03;;
19585;SDS011;9939;49.246;9.106;2022-08-30T02:48:12;6.00;;;2.07;;
19585;SDS011;9939;49.246;9.106;2022-08-30T02:50:41;9.63;;;2.73;;
19585;SDS011;9939;49.246;9.106;2022-08-30T02:53:10;5.13;;;2.53;;
19585;SDS011;9939;49.246;9.106;2022-08-30T02:55:41;7.03;;;2.23;;
19585;SDS011;9939;49.246;9.106;2022-08-30T02:58:09;4.63;;;1.97;;
19585;SDS011;9939;49.246;9.106;2022-08-30T03:00:36;5.47;;;1.90;;
19585;SDS011;9939;49.246;9.106;2022-08-30T03:03:04;5.80;;;2.03;;
19585;SDS011;9939;49.246;9.106;2022-08-30T03:05:33;3.57;;;2.00;;
19585;SDS011;9939;49.246;9.106;2022-08-30T03:08:05;6.87;;;2.33;;
19585;SDS011;9939;49.246;9.106;2022-08-30T03:10:32;5.90;;;2.37;;
19585;SDS011;9939;49.246;9.106;2022-08-30T03:13:00;5.03;;;2.03;;
19585;SDS011;9939;49.246;9.106;2022-08-30T03:15:27;3.93;;;1.97;;
19585;SDS011;9939;49.246;9.106;2022-08-30T03:17:54;8.60;;;2.37;;
19585;SDS011;9939;49.246;9.106;2022-08-30T03:20:22;4.47;;;2.30;;
19585;SDS011;9939;49.246;9.106;2022-08-30T03:22:50;5.30;;;2.20;;
19585;SDS011;9939;49.246;9.106;2022-08-30T03:25:17;8.90;;;3.33;;
19585;SDS011;9939;49.246;9.106;2022-08-30T03:27:46;5.80;;;2.90;;
19585;SDS011;9939;49.246;9.106;2022-08-30T03:30:15;11.63;;;4.23;;
19585;SDS011;9939;49.246;9.106;2022-08-30T03:32:44;6.87;;;2.53;;
19585;SDS011;9939;49.246;9.106;2022-08-30T03:35:12;7.27;;;3.13;;
19585;SDS011;9939;49.246;9.106;2022-08-30T03:37:40;6.60;;;2.63;;
19585;SDS011;9939;49.246;9.106;2022-08-30T03:40:07;5.13;;;1.97;;
19585;SDS011;9939;49.246;9.106;2022-08-30T03:42:35;4.27;;;1.87;;
19585;SDS011;9939;49.246;9.106;2022-08-30T03:45:05;9.00;;;1.90;;
19585;SDS011;9939;49.246;9.106;2022-08-30T03:47:33;5.27;;;1.90;;
19585;SDS011;9939;49.246;9.106;2022-08-30T03:50:00;9.07;;;2.30;;
19585;SDS011;9939;49.246;9.106;2022-08-30T03:52:27;5.10;;;2.23;;
19585;SDS011;9939;49.246;9.106;2022-08-30T03:54:54;6.33;;;2.40;;
19585;SDS011;9939;49.246;9.106;2022-08-30T03:57:22;5.40;;;2.03;;
19585;SDS011;9939;49.246;9.106;2022-08-30T03:59:50;6.57;;;2.40;;
19585;SDS011;9939;49.246;9.106;2022-08-30T04:02:17;4.50;;;2.20;;
19585;SDS011;9939;49.246;9.106;2022-08-30T04:04:44;6.50;;;2.43;;
19585;SDS011;9939;49.246;9.106;2022-08-30T04:07:11;5.60;;;2.33;;
19585;SDS011;9939;49.246;9.106;2022-08-30T04:09:38;6.67;;;2.40;;
19585;SDS011;9939;49.246;9.106;2022-08-30T04:12:06;4.73;;;1.87;;
19585;SDS011;9939;49.246;9.106;2022-08-30T04:14:33;9.90;;;2.43;;
19585;SDS011;9939;49.246;9.106;2022-08-30T04:17:00;9.07;;;2.07;;
19585;SDS011;9939;49.246;9.106;2022-08-30T04:19:27;6.60;;;2.43;;
19585;SDS011;9939;49.246;9.106;2022-08-30T04:21:54;6.23;;;2.07;;
19585;SDS011;9939;49.246;9.106;2022-08-30T04:24:22;6.60;;;2.33;;
19585;SDS011;9939;49.246;9.106;2022-08-30T04:26:49;7.60;;;2.63;;
19585;SDS011;9939;49.246;9.106;2022-08-30T04:29:16;4.83;;;2.00;;
19585;SDS011;9939;49.246;9.106;2022-08-30T04:31:43;4.47;;;2.33;;
19585;SDS011;9939;49.246;9.106;2022-08-30T04:34:11;5.53;;;2.30;;
19585;SDS011;9939;49.246;9.106;2022-08-30T04:36:39;11.67;;;2.80;;
19585;SDS011;9939;49.246;9.106;2022-08-30T04:39:06;6.73;;;2.50;;
19585;SDS011;9939;49.246;9.106;2022-08-30T04:41:34;7.10;;;2.00;;
19585;SDS011;9939;49.246;9.106;2022-08-30T04:44:02;3.50;;;1.90;;
19585;SDS011;9939;49.246;9.106;2022-08-30T04:46:29;4.57;;;2.03;;
19585;SDS011;9939;49.246;9.106;2022-08-30T04:48:56;5.80;;;2.30;;
19585;SDS011;9939;49.246;9.106;2022-08-30T04:51:23;7.30;;;2.80;;
19585;SDS011;9939;49.246;9.106;2022-08-30T04:53:50;7.90;;;2.53;;
19585;SDS011;9939;49.246;9.106;2022-08-30T04:56:18;7.57;;;2.60;;
19585;SDS011;9939;49.246;9.106;2022-08-30T04:58:48;7.53;;;2.20;;
19585;SDS011;9939;49.246;9.106;2022-08-30T05:01:19;5.20;;;2.20;;
19585;SDS011;9939;49.246;9.106;2022-08-30T05:03:52;5.57;;;2.30;;
19585;SDS011;9939;49.246;9.106;2022-08-30T05:06:21;8.40;;;2.73;;
19585;SDS011;9939;49.246;9.106;2022-08-30T05:08:49;7.97;;;2.40;;
19585;SDS011;9939;49.246;9.106;2022-08-30T05:11:18;6.43;;;2.60;;
19585;SDS011;9939;49.246;9.106;2022-08-30T05:13:46;7.80;;;2.50;;
19585;SDS011;9939;49.246;9.106;2022-08-30T05:16:15;7.43;;;2.97;;
19585;SDS011;9939;49.246;9.106;2022-08-30T05:18:45;9.33;;;3.07;;
19585;SDS011;9939;49.246;9.106;2022-08-30T05:23:42;7.17;;;2.50;;
19585;SDS011;9939;49.246;9.106;2022-08-30T05:26:18;7.73;;;2.50;;
19585;SDS011;9939;49.246;9.106;2022-08-30T05:28:48;7.87;;;2.33;;
19585;SDS011;9939;49.246;9.106;2022-08-30T05:31:19;8.63;;;2.70;;
19585;SDS011;9939;49.246;9.106;2022-08-30T05:33:49;8.23;;;2.30;;
19585;SDS011;9939;49.246;9.106;2022-08-30T05:36:17;7.13;;;2.70;;
19585;SDS011;9939;49.246;9.106;2022-08-30T05:38:46;7.47;;;2.90;;
19585;SDS011;9939;49.246;9.106;2022-08-30T05:41:13;4.73;;;2.23;;
19585;SDS011;9939;49.246;9.106;2022-08-30T05:43:40;7.60;;;2.60;;
19585;SDS011;9939;49.246;9.106;2022-08-30T05:46:09;6.07;;;2.53;;
19585;SDS011;9939;49.246;9.106;2022-08-30T05:48:38;6.00;;;2.50;;
19585;SDS011;9939;49.246;9.106;2022-08-30T05:51:16;5.47;;;2.23;;
19585;SDS011;9939;49.246;9.106;2022-08-30T05:53:46;5.83;;;2.50;;
19585;SDS011;9939;49.246;9.106;2022-08-30T05:56:16;11.20;;;2.80;;
19585;SDS011;9939;49.246;9.106;2022-08-30T05:58:45;8.47;;;2.80;;
19585;SDS011;9939;49.246;9.106;2022-08-30T06:01:19;6.33;;;2.60;;
19585;SDS011;9939;49.246;9.106;2022-08-30T06:03:46;8.77;;;3.00;;
19585;SDS011;9939;49.246;9.106;2022-08-30T06:06:14;6.83;;;2.20;;
19585;SDS011;9939;49.246;9.106;2022-08-30T06:08:41;6.53;;;2.23;;
19585;SDS011;9939;49.246;9.106;2022-08-30T06:11:11;6.07;;;2.60;;
19585;SDS011;9939;49.246;9.106;2022-08-30T06:13:39;7.20;;;2.70;;
19585;SDS011;9939;49.246;9.106;2022-08-30T06:16:07;7.37;;;2.70;;
19585;SDS011;9939;49.246;9.106;2022-08-30T06:18:40;7.13;;;2.47;;
19585;SDS011;9939;49.246;9.106;2022-08-30T06:21:13;6.43;;;2.70;;
19585;SDS011;9939;49.246;9.106;2022-08-30T06:23:45;5.90;;;2.47;;
19585;SDS011;9939;49.246;9.106;2022-08-30T06:26:12;6.73;;;2.63;;
19585;SDS011;9939;49.246;9.106;2022-08-30T06:28:39;7.93;;;2.93;;
19585;SDS011;9939;49.246;9.106;2022-08-30T06:31:07;6.47;;;2.83;;
19585;SDS011;9939;49.246;9.106;2022-08-30T06:33:35;6.90;;;2.70;;
19585;SDS011;9939;49.246;9.106;2022-08-30T06:36:03;6.97;;;2.60;;
19585;SDS011;9939;49.246;9.106;2022-08-30T06:38:32;7.27;;;2.70;;
19585;SDS011;9939;49.246;9.106;2022-08-30T06:40:59;6.87;;;2.67;;
19585;SDS011;9939;49.246;9.106;2022-08-30T06:43:26;6.27;;;2.40;;
19585;SDS011;9939;49.246;9.106;2022-08-30T06:45:54;7.07;;;2.60;;
19585;SDS011;9939;49.246;9.106;2022-08-30T06:48:21;6.60;;;2.77;;
19585;SDS011;9939;49.246;9.106;2022-08-30T06:50:52;6.90;;;3.17;;
19585;SDS011;9939;49.246;9.106;2022-08-30T06:53:20;6.63;;;3.10;;
19585;SDS011;9939;49.246;9.106;2022-08-30T06:56:07;9.77;;;2.70;;
19585;SDS011;9939;49.246;9.106;2022-08-30T06:58:36;7.87;;;2.77;;
19585;SDS011;9939;49.246;9.106;2022-08-30T07:01:04;8.83;;;3.30;;
19585;SDS011;9939;49.246;9.106;2022-08-30T07:03:36;7.60;;;2.53;;
19585;SDS011;9939;49.246;9.106;2022-08-30T07:06:03;6.10;;;2.60;;
19585;SDS011;9939;49.246;9.106;2022-08-30T07:08:30;7.27;;;3.10;;
19585;SDS011;9939;49.246;9.106;2022-08-30T07:10:57;7.77;;;3.00;;
19585;SDS011;9939;49.246;9.106;2022-08-30T07:13:25;7.50;;;2.73;;
19585;SDS011;9939;49.246;9.106;2022-08-30T07:15:53;5.67;;;2.53;;
19585;SDS011;9939;49.246;9.106;2022-08-30T07:18:20;10.37;;;2.73;;
19585;SDS011;9939;49.246;9.106;2022-08-30T07:21:08;5.57;;;2.60;;
19585;SDS011;9939;49.246;9.106;2022-08-30T07:23:36;8.77;;;2.97;;
19585;SDS011;9939;49.246;9.106;2022-08-30T07:26:05;9.90;;;3.40;;
19585;SDS011;9939;49.246;9.106;2022-08-30T07:28:35;5.53;;;2.80;;
19585;SDS011;9939;49.246;9.106;2022-08-30T07:31:03;7.67;;;2.60;;
19585;SDS011;9939;49.246;9.106;2022-08-30T07:33:34;9.27;;;3.00;;
19585;SDS011;9939;49.246;9.106;2022-08-30T07:36:03;7.93;;;3.23;;
19585;SDS011;9939;49.246;9.106;2022-08-30T07:38:30;5.03;;;2.50;;
19585;SDS011;9939;49.246;9.106;2022-08-30T07:40:58;10.93;;;2.97;;
19585;SDS011;9939;49.246;9.106;2022-08-30T07:43:27;8.00;;;2.83;;
19585;SDS011;9939;49.246;9.106;2022-08-30T07:45:54;8.70;;;2.67;;
19585;SDS011;9939;49.246;9.106;2022-08-30T07:48:25;8.10;;;3.20;;
19585;SDS011;9939;49.246;9.106;2022-08-30T07:50:52;7.87;;;2.83;;
19585;SDS011;9939;49.246;9.106;2022-08-30T07:53:25;7.57;;;3.30;;
19585;SDS011;9939;49.246;9.106;2022-08-30T07:55:52;7.07;;;3.07;;
19585;SDS011;9939;49.246;9.106;2022-08-30T07:58:19;7.97;;;2.70;;
19585;SDS011;9939;49.246;9.106;2022-08-30T08:00:46;7.20;;;2.83;;
19585;SDS011;9939;49.246;9.106;2022-08-30T08:03:13;5.97;;;2.67;;
19585;SDS011;9939;49.246;9.106;2022-08-30T08:05:42;7.07;;;2.83;;
19585;SDS011;9939;49.246;9.106;2022-08-30T08:08:11;6.67;;;3.17;;
19585;SDS011;9939;49.246;9.106;2022-08-30T08:10:39;8.77;;;3.00;;
19585;SDS011;9939;49.246;9.106;2022-08-30T08:13:07;9.03;;;2.93;;
19585;SDS011;9939;49.246;9.106;2022-08-30T08:15:36;9.33;;;3.30;;
19585;SDS011;9939;49.246;9.106;2022-08-30T08:18:04;9.60;;;2.73;;
19585;SDS011;9939;49.246;9.106;2022-08-30T08:20:32;6.23;;;2.67;;
19585;SDS011;9939;49.246;9.106;2022-08-30T08:22:59;5.60;;;2.80;;
19585;SDS011;9939;49.246;9.106;2022-08-30T08:25:27;6.90;;;2.87;;
19585;SDS011;9939;49.246;9.106;2022-08-30T08:27:55;6.40;;;3.00;;
19585;SDS011;9939;49.246;9.106;2022-08-30T08:30:23;6.80;;;3.07;;
19585;SDS011;9939;49.246;9.106;2022-08-30T08:32:50;6.97;;;2.90;;
19585;SDS011;9939;49.246;9.106;2022-08-30T08:35:17;6.10;;;3.20;;
19585;SDS011;9939;49.246;9.106;2022-08-30T08:37:44;7.47;;;3.03;;
19585;SDS011;9939;49.246;9.106;2022-08-30T08:40:13;10.05;;;3.00;;
19585;SDS011;9939;49.246;9.106;2022-08-30T08:42:55;7.22;;;3.50;;
19585;SDS011;9939;49.246;9.106;2022-08-30T08:45:49;9.75;;;3.15;;
19585;SDS011;9939;49.246;9.106;2022-08-30T08:48:30;7.38;;;3.03;;
19585;SDS011;9939;49.246;9.106;2022-08-30T08:51:25;11.00;;;2.65;;
19585;SDS011;9939;49.246;9.106;2022-08-30T08:54:18;7.60;;;3.30;;
19585;SDS011;9939;49.246;9.106;2022-08-30T08:56:45;6.60;;;3.17;;
19585;SDS011;9939;49.246;9.106;2022-08-30T08:59:12;8.45;;;3.85;;
19585;SDS011;9939;49.246;9.106;2022-08-30T09:01:41;6.43;;;3.05;;
19585;SDS011;9939;49.246;9.106;2022-08-30T09:04:13;8.55;;;2.97;;
19585;SDS011;9939;49.246;9.106;2022-08-30T09:09:30;9.27;;;3.13;;
19585;SDS011;9939;49.246;9.106;2022-08-30T09:12:06;8.52;;;3.55;;
19585;SDS011;9939;49.246;9.106;2022-08-30T09:14:38;5.03;;;3.10;;
19585;SDS011;9939;49.246;9.106;2022-08-30T09:17:12;5.32;;;2.85;;
19585;SDS011;9939;49.246;9.106;2022-08-30T09:25:03;7.05;;;3.22;;
19585;SDS011;9939;49.246;9.106;2022-08-30T09:27:33;6.35;;;2.60;;
19585;SDS011;9939;49.246;9.106;2022-08-30T09:32:56;4.95;;;3.00;;
19585;SDS011;9939;49.246;9.106;2022-08-30T09:35:34;8.02;;;2.95;;
19585;SDS011;9939;49.246;9.106;2022-08-30T09:38:15;5.00;;;2.88;;
19585;SDS011;9939;49.246;9.106;2022-08-30T09:40:45;5.75;;;2.88;;
19585;SDS011;9939;49.246;9.106;2022-08-30T09:43:22;5.85;;;2.83;;
19585;SDS011;9939;49.246;9.106;2022-08-30T09:53:34;6.38;;;3.25;;
19585;SDS011;9939;49.246;9.106;2022-08-30T09:56:38;9.98;;;3.13;;
19585;SDS011;9939;49.246;9.106;2022-08-30T09:59:26;10.18;;;3.65;;
19585;SDS011;9939;49.246;9.106;2022-08-30T10:04:59;5.45;;;3.05;;
19585;SDS011;9939;49.246;9.106;2022-08-30T10:07:38;7.78;;;3.40;;
19585;SDS011;9939;49.246;9.106;2022-08-30T10:10:14;7.68;;;3.20;;
19585;SDS011;9939;49.246;9.106;2022-08-30T10:12:53;5.93;;;2.83;;
19585;SDS011;9939;49.246;9.106;2022-08-30T10:15:26;4.28;;;2.45;;
19585;SDS011;9939;49.246;9.106;2022-08-30T10:21:10;8.07;;;3.25;;
19585;SDS011;9939;49.246;9.106;2022-08-30T10:23:46;6.45;;;3.30;;
19585;SDS011;9939;49.246;9.106;2022-08-30T10:26:25;6.70;;;2.85;;
19585;SDS011;9939;49.246;9.106;2022-08-30T10:29:31;7.28;;;3.58;;
19585;SDS011;9939;49.246;9.106;2022-08-30T10:35:14;6.43;;;2.88;;
19585;SDS011;9939;49.246;9.106;2022-08-30T10:38:02;4.55;;;2.55;;
19585;SDS011;9939;49.246;9.106;2022-08-30T10:40:34;7.47;;;3.22;;
19585;SDS011;9939;49.246;9.106;2022-08-30T10:46:10;6.65;;;2.90;;
19585;SDS011;9939;49.246;9.106;2022-08-30T10:48:44;5.45;;;2.55;;
19585;SDS011;9939;49.246;9.106;2022-08-30T10:51:15;6.88;;;3.00;;
19585;SDS011;9939;49.246;9.106;2022-08-30T10:54:07;5.90;;;3.00;;
19585;SDS011;9939;49.246;9.106;2022-08-30T10:56:36;6.07;;;2.83;;
19585;SDS011;9939;49.246;9.106;2022-08-30T10:59:06;6.40;;;2.95;;
19585;SDS011;9939;49.246;9.106;2022-08-30T11:01:46;6.20;;;2.63;;
19585;SDS011;9939;49.246;9.106;2022-08-30T11:13:10;6.45;;;3.00;;
19585;SDS011;9939;49.246;9.106;2022-08-30T11:18:21;5.00;;;2.83;;
19585;SDS011;9939;49.246;9.106;2022-08-30T11:20:50;6.47;;;3.10;;
19585;SDS011;9939;49.246;9.106;2022-08-30T11:23:31;6.70;;;3.00;;
19585;SDS011;9939;49.246;9.106;2022-08-30T11:26:08;5.47;;;3.08;;
19585;SDS011;9939;49.246;9.106;2022-08-30T11:28:59;5.40;;;3.17;;
19585;SDS011;9939;49.246;9.106;2022-08-30T11:33:58;7.35;;;3.42;;
19585;SDS011;9939;49.246;9.106;2022-08-30T11:42:57;6.03;;;3.72;;
19585;SDS011;9939;49.246;9.106;2022-08-30T11:47:55;5.53;;;3.40;;
19585;SDS011;9939;49.246;9.106;2022-08-30T11:53:26;6.30;;;3.75;;
19585;SDS011;9939;49.246;9.106;2022-08-30T11:56:18;6.93;;;3.58;;
19585;SDS011;9939;49.246;9.106;2022-08-30T11:58:57;6.55;;;4.18;;
19585;SDS011;9939;49.246;9.106;2022-08-30T12:01:49;6.07;;;3.55;;
19585;SDS011;9939;49.246;9.106;2022-08-30T12:06:59;7.47;;;3.60;;
19585;SDS011;9939;49.246;9.106;2022-08-30T12:14:36;5.85;;;3.58;;
19585;SDS011;9939;49.246;9.106;2022-08-30T12:20:45;5.90;;;3.75;;
19585;SDS011;9939;49.246;9.106;2022-08-30T12:26:17;5.65;;;3.58;;
19585;SDS011;9939;49.246;9.106;2022-08-30T12:28:52;5.95;;;3.55;;
19585;SDS011;9939;49.246;9.106;2022-08-30T12:31:40;5.88;;;3.72;;
19585;SDS011;9939;49.246;9.106;2022-08-30T12:34:08;5.53;;;3.38;;
19585;SDS011;9939;49.246;9.106;2022-08-30T12:37:01;7.85;;;3.90;;
19585;SDS011;9939;49.246;9.106;2022-08-30T12:39:38;5.50;;;3.25;;
19585;SDS011;9939;49.246;9.106;2022-08-30T12:42:10;8.48;;;3.50;;
19585;SDS011;9939;49.246;9.106;2022-08-30T12:44:48;7.55;;;4.00;;
19585;SDS011;9939;49.246;9.106;2022-08-30T12:47:19;6.18;;;3.67;;
19585;SDS011;9939;49.246;9.106;2022-08-30T12:49:55;6.45;;;3.85;;
19585;SDS011;9939;49.246;9.106;2022-08-30T12:55:14;6.93;;;3.10;;
19585;SDS011;9939;49.246;9.106;2022-08-30T12:58:07;6.40;;;3.42;;
19585;SDS011;9939;49.246;9.106;2022-08-30T13:00:39;4.97;;;3.08;;
19585;SDS011;9939;49.246;9.106;2022-08-30T13:03:27;5.88;;;3.20;;
19585;SDS011;9939;49.246;9.106;2022-08-30T13:05:56;6.20;;;3.58;;
19585;SDS011;9939;49.246;9.106;2022-08-30T13:08:30;6.22;;;3.85;;
19585;SDS011;9939;49.246;9.106;2022-08-30T13:11:08;7.05;;;3.20;;
19585;SDS011;9939;49.246;9.106;2022-08-30T13:16:11;6.60;;;3.28;;
19585;SDS011;9939;49.246;9.106;2022-08-30T13:18:46;6.68;;;3.10;;
19585;SDS011;9939;49.246;9.106;2022-08-30T13:24:02;7.55;;;3.88;;
19585;SDS011;9939;49.246;9.106;2022-08-30T13:26:33;4.80;;;3.45;;
19585;SDS011;9939;49.246;9.106;2022-08-30T13:29:03;7.78;;;3.72;;
19585;SDS011;9939;49.246;9.106;2022-08-30T13:31:35;6.40;;;3.17;;
19585;SDS011;9939;49.246;9.106;2022-08-30T13:34:02;4.85;;;3.25;;
19585;SDS011;9939;49.246;9.106;2022-08-30T13:36:31;7.20;;;3.47;;
19585;SDS011;9939;49.246;9.106;2022-08-30T13:39:03;6.97;;;3.70;;
19585;SDS011;9939;49.246;9.106;2022-08-30T13:41:31;7.45;;;4.00;;
19585;SDS011;9939;49.246;9.106;2022-08-30T13:44:00;5.55;;;3.58;;
19585;SDS011;9939;49.246;9.106;2022-08-30T13:46:39;9.38;;;3.45;;
19585;SDS011;9939;49.246;9.106;2022-08-30T13:49:11;6.50;;;3.92;;
19585;SDS011;9939;49.246;9.106;2022-08-30T13:52:05;6.60;;;3.42;;
19585;SDS011;9939;49.246;9.106;2022-08-30T13:54:50;6.22;;;3.53;;
19585;SDS011;9939;49.246;9.106;2022-08-30T13:57:18;5.75;;;3.30;;
19585;SDS011;9939;49.246;9.106;2022-08-30T14:00:10;8.48;;;3.28;;
19585;SDS011;9939;49.246;9.106;2022-08-30T14:02:41;6.75;;;3.60;;
19585;SDS011;9939;49.246;9.106;2022-08-30T14:05:13;5.47;;;3.50;;
19585;SDS011;9939;49.246;9.106;2022-08-30T14:08:00;6.75;;;3.97;;
19585;SDS011;9939;49.246;9.106;2022-08-30T14:10:29;4.97;;;3.22;;
19585;SDS011;9939;49.246;9.106;2022-08-30T14:12:58;6.63;;;3.70;;
19585;SDS011;9939;49.246;9.106;2022-08-30T14:15:35;6.35;;;3.20;;
19585;SDS011;9939;49.246;9.106;2022-08-30T14:18:04;6.28;;;4.07;;
19585;SDS011;9939;49.246;9.106;2022-08-30T14:20:33;5.43;;;3.33;;
19585;SDS011;9939;49.246;9.106;2022-08-30T14:23:04;4.68;;;2.95;;
19585;SDS011;9939;49.246;9.106;2022-08-30T14:25:35;4.05;;;3.17;;
19585;SDS011;9939;49.246;9.106;2022-08-30T14:28:06;5.32;;;3.58;;
19585;SDS011;9939;49.246;9.106;2022-08-30T14:30:35;6.00;;;3.80;;
19585;SDS011;9939;49.246;9.106;2022-08-30T14:33:04;5.25;;;3.30;;
19585;SDS011;9939;49.246;9.106;2022-08-30T14:35:31;5.00;;;3.65;;
19585;SDS011;9939;49.246;9.106;2022-08-30T14:37:58;6.28;;;3.55;;
19585;SDS011;9939;49.246;9.106;2022-08-30T14:40:25;5.60;;;3.63;;
19585;SDS011;9939;49.246;9.106;2022-08-30T14:42:53;5.55;;;3.53;;
19585;SDS011;9939;49.246;9.106;2022-08-30T14:45:20;4.50;;;3.35;;
19585;SDS011;9939;49.246;9.106;2022-08-30T14:47:48;7.25;;;3.58;;
19585;SDS011;9939;49.246;9.106;2022-08-30T14:50:15;5.43;;;3.50;;
19585;SDS011;9939;49.246;9.106;2022-08-30T14:52:42;6.90;;;3.75;;
19585;SDS011;9939;49.246;9.106;2022-08-30T14:55:11;6.25;;;3.47;;
19585;SDS011;9939;49.246;9.106;2022-08-30T14:57:38;4.95;;;3.38;;
19585;SDS011;9939;49.246;9.106;2022-08-30T15:00:08;6.25;;;3.72;;
19585;SDS011;9939;49.246;9.106;2022-08-30T15:02:36;7.10;;;3.95;;
19585;SDS011;9939;49.246;9.106;2022-08-30T15:05:03;4.88;;;3.60;;
19585;SDS011;9939;49.246;9.106;2022-08-30T15:07:33;7.72;;;3.60;;
19585;SDS011;9939;49.246;9.106;2022-08-30T15:10:01;4.95;;;3.15;;
19585;SDS011;9939;49.246;9.106;2022-08-30T15:12:30;5.30;;;3.47;;
19585;SDS011;9939;49.246;9.106;2022-08-30T15:14:57;6.97;;;3.70;;
19585;SDS011;9939;49.246;9.106;2022-08-30T15:17:25;7.25;;;3.75;;
19585;SDS011;9939;49.246;9.106;2022-08-30T15:19:53;5.20;;;3.72;;
19585;SDS011;9939;49.246;9.106;2022-08-30T15:22:20;5.13;;;3.50;;
19585;SDS011;9939;49.246;9.106;2022-08-30T15:24:47;6.28;;;3.75;;
19585;SDS011;9939;49.246;9.106;2022-08-30T15:27:16;5.63;;;3.50;;
19585;SDS011;9939;49.246;9.106;2022-08-30T15:29:43;5.70;;;3.53;;
19585;SDS011;9939;49.246;9.106;2022-08-30T15:32:10;4.05;;;3.35;;
19585;SDS011;9939;49.246;9.106;2022-08-30T15:34:37;5.40;;;3.30;;
19585;SDS011;9939;49.246;9.106;2022-08-30T15:37:04;6.55;;;3.53;;
19585;SDS011;9939;49.246;9.106;2022-08-30T15:39:33;6.40;;;3.63;;
19585;SDS011;9939;49.246;9.106;2022-08-30T15:42:00;5.22;;;3.70;;
19585;SDS011;9939;49.246;9.106;2022-08-30T15:44:28;5.25;;;3.38;;
19585;SDS011;9939;49.246;9.106;2022-08-30T15:46:56;5.68;;;3.25;;
19585;SDS011;9939;49.246;9.106;2022-08-30T15:49:23;4.72;;;3.30;;
19585;SDS011;9939;49.246;9.106;2022-08-30T15:51:50;4.55;;;3.15;;
19585;SDS011;9939;49.246;9.106;2022-08-30T15:54:21;5.25;;;3.28;;
19585;SDS011;9939;49.246;9.106;2022-08-30T15:56:49;7.40;;;3.33;;
19585;SDS011;9939;49.246;9.106;2022-08-30T15:59:25;5.85;;;3.58;;
19585;SDS011;9939;49.246;9.106;2022-08-30T16:01:53;6.63;;;3.10;;
19585;SDS011;9939;49.246;9.106;2022-08-30T16:04:22;4.15;;;3.25;;
19585;SDS011;9939;49.246;9.106;2022-08-30T16:06:51;5.72;;;4.00;;
19585;SDS011;9939;49.246;9.106;2022-08-30T16:09:18;5.15;;;3.15;;
19585;SDS011;9939;49.246;9.106;2022-08-30T16:11:45;8.73;;;3.42;;
19585;SDS011;9939;49.246;9.106;2022-08-30T16:14:13;4.90;;;3.30;;
19585;SDS011;9939;49.246;9.106;2022-08-30T16:16:40;4.25;;;2.80;;
19585;SDS011;9939;49.246;9.106;2022-08-30T16:19:07;7.45;;;3.65;;
19585;SDS011;9939;49.246;9.106;2022-08-30T16:21:35;5.38;;;3.08;;
19585;SDS011;9939;49.246;9.106;2022-08-30T16:24:03;4.65;;;2.80;;
19585;SDS011;9939;49.246;9.106;2022-08-30T16:26:32;5.18;;;3.33;;
19585;SDS011;9939;49.246;9.106;2022-08-30T16:29:00;5.05;;;3.15;;
19585;SDS011;9939;49.246;9.106;2022-08-30T16:31:28;6.40;;;3.72;;
19585;SDS011;9939;49.246;9.106;2022-08-30T16:33:57;5.15;;;3.50;;
19585;SDS011;9939;49.246;9.106;2022-08-30T16:36:29;4.60;;;3.03;;
19585;SDS011;9939;49.246;9.106;2022-08-30T16:38:57;5.28;;;3.03;;
19585;SDS011;9939;49.246;9.106;2022-08-30T16:41:25;4.13;;;2.75;;
19585;SDS011;9939;49.246;9.106;2022-08-30T16:43:52;4.30;;;3.10;;
19585;SDS011;9939;49.246;9.106;2022-08-30T16:46:21;5.50;;;3.17;;